Time;durP1;ratioP1;P1;durP2;ratioP2;P2;SDS_P1;SDS_P2;PMS_P1;PMS_P2;Temp;Humidity;BMP_temperature;BMP_pressure;BME280_temperature;BME280_humidity;BME280_pressure;Samples;Min_cycle;Max_cycle;Signal;HPM_P1;HPM_P2
2021/07/19 00:00:36;;;;;;;;;8.00;7.50;;;;;;;;4685140;30;45709;-89
2021/07/19 00:03:02;;;;;;;;;7.00;7.00;;;;;;;;4684100;30;45525;-88
2021/07/19 00:05:28;;;;;;;;;8.00;6.00;;;;;;;;4684987;30;45747;-89
2021/07/19 00:07:53;;;;;;;;;5.00;4.00;;;;;;;;4686036;30;46283;-89
2021/07/19 00:10:19;;;;;;;;;5.75;5.75;;;;;;;;4687370;30;45887;-89
2021/07/19 00:12:45;;;;;;;;;7.25;6.00;;;;;;;;4683129;30;45426;-89
2021/07/19 00:15:12;;;;;;;;;7.00;7.00;;;;;;;;4679853;30;45420;-89
2021/07/19 00:17:38;;;;;;;;;7.00;5.75;;;;;;;;4685018;30;45624;-88
2021/07/19 00:20:04;;;;;;;;;6.00;5.00;;;;;;;;4669831;30;45674;-88
2021/07/19 00:22:29;;;;;;;;;6.75;6.75;;;;;;;;4685640;30;45801;-88
2021/07/19 00:24:54;;;;;;;;;7.00;5.67;;;;;;;;4677784;30;45503;-88
2021/07/19 00:27:19;;;;;;;;;6.00;6.00;;;;;;;;4682194;30;45504;-87
2021/07/19 00:29:45;;;;;;;;;6.00;6.00;;;;;;;;4691718;30;45579;-89
2021/07/19 00:32:10;;;;;;;;;7.00;5.75;;;;;;;;4683862;30;45644;-89
2021/07/19 00:34:35;;;;;;;;;7.75;6.00;;;;;;;;4676959;30;45539;-89
2021/07/19 00:37:01;;;;;;;;;6.00;6.00;;;;;;;;4683326;30;46379;-89
2021/07/19 00:39:27;;;;;;;;;6.25;6.00;;;;;;;;4687523;30;45599;-89
2021/07/19 00:41:52;;;;;;;;;6.50;5.75;;;;;;;;4684821;30;45537;-89
2021/07/19 00:44:20;;;;;;;;;6.50;6.25;;;;;;;;4687604;30;45474;-89
2021/07/19 00:46:45;;;;;;;;;4.75;4.75;;;;;;;;4683742;30;46698;-88
2021/07/19 00:49:11;;;;;;;;;8.00;6.00;;;;;;;;4684257;30;45938;-88
2021/07/19 00:51:36;;;;;;;;;7.00;5.75;;;;;;;;4691836;30;45440;-89
2021/07/19 00:54:03;;;;;;;;;7.00;5.00;;;;;;;;4683851;30;45579;-89
2021/07/19 00:56:28;;;;;;;;;10.25;7.50;;;;;;;;4686374;30;47556;-88
2021/07/19 00:58:54;;;;;;;;;5.25;5.25;;;;;;;;4690172;30;45805;-90
2021/07/19 01:01:19;;;;;;;;;9.50;7.25;;;;;;;;4688990;30;45357;-88
2021/07/19 01:03:45;;;;;;;;;8.50;6.00;;;;;;;;4685881;30;45610;-88
2021/07/19 01:06:11;;;;;;;;;6.75;6.75;;;;;;;;4667464;30;48439;-88
2021/07/19 01:08:36;;;;;;;;;6.25;6.25;;;;;;;;4681395;30;45657;-89
2021/07/19 01:11:02;;;;;;;;;5.50;5.50;;;;;;;;4690713;30;45412;-88
2021/07/19 01:13:28;;;;;;;;;10.00;7.50;;;;;;;;4685943;30;45521;-88
2021/07/19 01:15:53;;;;;;;;;7.50;6.50;;;;;;;;4684261;30;45594;-88
2021/07/19 01:18:18;;;;;;;;;6.50;6.25;;;;;;;;4688900;30;46549;-88
2021/07/19 01:21:02;;;;;;;;;9.75;7.00;;;;;;;;4673743;30;45547;-88
2021/07/19 01:23:27;;;;;;;;;7.00;5.75;;;;;;;;4690598;30;45487;-89
2021/07/19 01:26:01;;;;;;;;;8.33;7.67;;;;;;;;4684228;30;45268;-88
2021/07/19 01:28:47;;;;;;;;;6.50;6.50;;;;;;;;4686171;30;45436;-88
2021/07/19 01:31:21;;;;;;;;;7.25;7.00;;;;;;;;4692873;30;45547;-89
2021/07/19 01:33:47;;;;;;;;;7.25;5.50;;;;;;;;4679597;30;45661;-88
2021/07/19 01:36:14;;;;;;;;;8.75;6.50;;;;;;;;4689582;30;45345;-89
2021/07/19 01:38:39;;;;;;;;;8.50;7.25;;;;;;;;4691674;30;45569;-88
2021/07/19 01:41:05;;;;;;;;;9.75;7.00;;;;;;;;4679096;30;45424;-89
2021/07/19 01:43:30;;;;;;;;;8.00;7.25;;;;;;;;4687243;30;46978;-89
2021/07/19 01:45:56;;;;;;;;;9.75;6.75;;;;;;;;4684568;30;46425;-88
2021/07/19 01:50:51;;;;;;;;;7.75;7.00;;;;;;;;4660248;30;46987;-80
2021/07/19 01:53:17;;;;;;;;;7.25;7.25;;;;;;;;4662612;30;45525;-80
2021/07/19 01:55:44;;;;;;;;;10.50;6.75;;;;;;;;4663644;30;45611;-79
2021/07/19 01:58:10;;;;;;;;;9.25;8.00;;;;;;;;4660659;30;45691;-80
2021/07/19 02:00:35;;;;;;;;;9.50;8.00;;;;;;;;4657064;30;45787;-79
2021/07/19 02:03:01;;;;;;;;;10.75;8.00;;;;;;;;4657061;30;45538;-79
2021/07/19 02:05:27;;;;;;;;;7.50;7.25;;;;;;;;4667835;30;45693;-80
2021/07/19 02:07:54;;;;;;;;;7.75;7.75;;;;;;;;4670012;30;45589;-81
2021/07/19 02:10:19;;;;;;;;;10.50;7.75;;;;;;;;4669712;30;45648;-80
2021/07/19 02:12:45;;;;;;;;;10.50;7.50;;;;;;;;4672078;30;45848;-79
2021/07/19 02:15:18;;;;;;;;;8.25;7.25;;;;;;;;4655534;30;47839;-81
2021/07/19 02:17:52;;;;;;;;;8.25;8.25;;;;;;;;4660901;30;45738;-79
2021/07/19 02:20:17;;;;;;;;;9.50;7.75;;;;;;;;4655907;30;45707;-80
2021/07/19 02:22:43;;;;;;;;;9.00;9.00;;;;;;;;4671301;30;45669;-80
2021/07/19 02:25:10;;;;;;;;;9.00;7.00;;;;;;;;4655510;30;48059;-79
2021/07/19 02:27:40;;;;;;;;;8.50;8.25;;;;;;;;4672169;30;45502;-79
2021/07/19 02:30:10;;;;;;;;;8.50;7.25;;;;;;;;4653301;30;45937;-80
2021/07/19 02:32:38;;;;;;;;;10.00;9.00;;;;;;;;4666820;30;46242;-79
2021/07/19 02:35:05;;;;;;;;;8.50;8.00;;;;;;;;4672172;30;46172;-79
2021/07/19 02:38:02;;;;;;;;;7.25;7.25;;;;;;;;4648139;30;45867;-79
2021/07/19 02:40:29;;;;;;;;;8.75;8.25;;;;;;;;4580505;30;45714;-79
2021/07/19 02:42:59;;;;;;;;;9.25;8.00;;;;;;;;4586660;30;47016;-77
2021/07/19 02:45:25;;;;;;;;;13.00;9.00;;;;;;;;4581913;30;46529;-78
2021/07/19 02:47:51;;;;;;;;;8.25;7.25;;;;;;;;4569913;30;45598;-78
2021/07/19 02:50:17;;;;;;;;;9.75;9.00;;;;;;;;4581771;30;45708;-78
2021/07/19 02:52:44;;;;;;;;;9.00;9.00;;;;;;;;4583727;30;45663;-78
2021/07/19 02:55:10;;;;;;;;;10.50;9.25;;;;;;;;4586188;30;46437;-77
2021/07/19 02:57:35;;;;;;;;;7.00;7.00;;;;;;;;4583476;30;45724;-77
2021/07/19 03:00:03;;;;;;;;;8.75;8.00;;;;;;;;4565624;30;46411;-77
2021/07/19 03:02:28;;;;;;;;;8.75;8.50;;;;;;;;4567680;30;45756;-78
2021/07/19 03:04:56;;;;;;;;;15.75;11.50;;;;;;;;4579451;30;45588;-77
2021/07/19 03:07:22;;;;;;;;;10.50;8.00;;;;;;;;4580678;30;45972;-77
2021/07/19 03:09:49;;;;;;;;;10.00;10.00;;;;;;;;4585373;30;45619;-77
2021/07/19 03:12:19;;;;;;;;;9.00;8.75;;;;;;;;4579107;30;45637;-77
2021/07/19 03:14:47;;;;;;;;;9.00;7.50;;;;;;;;4566718;30;47278;-78
2021/07/19 03:17:13;;;;;;;;;10.00;9.25;;;;;;;;4650983;30;45739;-76
2021/07/19 03:19:39;;;;;;;;;10.25;8.25;;;;;;;;4645481;30;46086;-77
2021/07/19 03:22:05;;;;;;;;;9.25;8.00;;;;;;;;4678486;30;45570;-77
2021/07/19 03:24:31;;;;;;;;;13.25;11.50;;;;;;;;4673723;30;45499;-77
2021/07/19 03:26:56;;;;;;;;;9.00;8.50;;;;;;;;4668988;30;45345;-77
2021/07/19 03:29:23;;;;;;;;;10.75;8.50;;;;;;;;4652716;30;45574;-78
2021/07/19 03:32:51;;;;;;;;;10.50;10.50;;;;;;;;4668837;30;45708;-77
2021/07/19 03:34:57;;;;;;;;;13.00;8.75;;;;;;;;4613042;30;45882;-77
2021/07/19 03:37:23;;;;;;;;;10.50;10.25;;;;;;;;4596016;30;46076;-78
2021/07/19 03:39:50;;;;;;;;;7.50;7.50;;;;;;;;4603593;30;45897;-77
2021/07/19 03:42:15;;;;;;;;;12.00;11.00;;;;;;;;4615140;30;45924;-78
2021/07/19 03:44:41;;;;;;;;;11.00;9.25;;;;;;;;4617977;30;45846;-78
2021/07/19 03:47:10;;;;;;;;;12.50;11.00;;;;;;;;4614998;30;45714;-77
2021/07/19 03:49:35;;;;;;;;;11.25;10.00;;;;;;;;4614035;30;46247;-77
2021/07/19 03:52:00;;;;;;;;;11.50;9.50;;;;;;;;4616002;30;45609;-78
2021/07/19 03:54:26;;;;;;;;;13.75;11.50;;;;;;;;4609930;30;56601;-77
2021/07/19 03:56:51;;;;;;;;;11.25;11.00;;;;;;;;4618169;30;45544;-78
2021/07/19 03:59:19;;;;;;;;;12.50;11.00;;;;;;;;4615001;30;45521;-78
2021/07/19 04:01:46;;;;;;;;;10.50;10.50;;;;;;;;4598220;30;46186;-77
2021/07/19 04:04:17;;;;;;;;;10.00;9.00;;;;;;;;4621755;30;46548;-78
2021/07/19 04:09:48;;;;;;;;;15.50;10.50;;;;;;;;4672594;24;46255;-88
2021/07/19 04:12:14;;;;;;;;;13.50;10.00;;;;;;;;4675120;30;45656;-89
2021/07/19 04:14:40;;;;;;;;;13.50;10.75;;;;;;;;4693376;30;46157;-89
2021/07/19 04:17:05;;;;;;;;;10.00;10.00;;;;;;;;4691683;30;45536;-88
2021/07/19 04:19:32;;;;;;;;;12.75;9.75;;;;;;;;4676507;30;45427;-89
2021/07/19 04:21:57;;;;;;;;;11.25;11.25;;;;;;;;4730117;24;45808;-80
2021/07/19 04:24:22;;;;;;;;;11.00;10.00;;;;;;;;4653474;30;47263;-79
2021/07/19 04:26:48;;;;;;;;;10.00;10.00;;;;;;;;4673770;30;45604;-80
2021/07/19 04:40:55;;;;;;;;;13.25;11.25;;;;;;;;4769865;24;46027;-81
2021/07/19 04:49:28;;;;;;;;;12.50;11.75;;;;;;;;4651006;30;46079;-80
2021/07/19 05:02:15;;;;;;;;;12.25;11.00;;;;;;;;4934418;24;45614;-79
2021/07/19 05:04:55;;;;;;;;;11.50;10.25;;;;;;;;4662692;30;45903;-79
2021/07/19 05:07:36;;;;;;;;;;;;;;;;;;;;;
2021/07/19 05:28:35;;;;;;;;;17.25;12.50;;;;;;;;4944841;24;45851;-88
2021/07/19 05:31:00;;;;;;;;;12.00;9.67;;;;;;;;4706936;30;45453;-88
2021/07/19 05:33:26;;;;;;;;;14.00;11.50;;;;;;;;4688542;30;45430;-88
2021/07/19 05:35:52;;;;;;;;;14.00;12.75;;;;;;;;4702967;30;45438;-88
2021/07/19 05:38:18;;;;;;;;;10.25;10.25;;;;;;;;4709904;24;45781;-81
2021/07/19 05:40:47;;;;;;;;;12.00;10.75;;;;;;;;4691087;30;45618;-81
2021/07/19 05:43:28;;;;;;;;;;;;;;;;;;;;;
2021/07/19 05:49:01;;;;;;;;;15.50;11.25;;;;;;;;4611394;30;56963;-80
2021/07/19 05:51:26;;;;;;;;;13.75;11.00;;;;;;;;4600893;30;45913;-81
2021/07/19 05:53:51;;;;;;;;;10.25;10.00;;;;;;;;4600695;30;45615;-81
2021/07/19 05:56:16;;;;;;;;;14.75;11.75;;;;;;;;4601388;30;45728;-79
2021/07/19 05:58:42;;;;;;;;;14.25;12.25;;;;;;;;4583723;30;46532;-79
2021/07/19 06:16:39;;;;;;;;;11.50;10.50;;;;;;;;804820;24;46112;-88
2021/07/19 06:19:04;;;;;;;;;13.75;10.75;;;;;;;;4677355;30;46857;-87
2021/07/19 06:21:29;;;;;;;;;11.67;9.33;;;;;;;;4676412;30;45340;-87
2021/07/19 06:23:54;;;;;;;;;15.67;10.00;;;;;;;;4678062;30;45736;-87
2021/07/19 06:26:19;;;;;;;;;14.33;9.67;;;;;;;;4679051;30;45629;-87
2021/07/19 06:28:45;;;;;;;;;11.50;9.00;;;;;;;;4678054;30;45611;-88
2021/07/19 06:31:11;;;;;;;;;10.33;10.33;;;;;;;;5505227;24;46996;-88
2021/07/19 07:10:23;;;;;;;;;15.00;10.50;;;;;;;;4944724;24;47169;-81
2021/07/19 07:39:56;;;;;;;;;10.50;10.00;;;;;;;;1242336;28;46251;-81
2021/07/19 07:45:28;;;;;;;;;10.75;7.00;;;;;;;;4697959;24;45495;-88
2021/07/19 07:47:53;;;;;;;;;10.50;8.25;;;;;;;;4676724;30;45507;-87
2021/07/19 07:50:18;;;;;;;;;11.25;7.25;;;;;;;;4673002;30;45622;-88
2021/07/19 07:52:44;;;;;;;;;11.33;10.33;;;;;;;;4676245;30;48701;-87
2021/07/19 07:55:09;;;;;;;;;7.67;7.67;;;;;;;;4696357;30;45505;-88
2021/07/19 07:57:34;;;;;;;;;10.00;9.25;;;;;;;;4687121;30;45358;-87
2021/07/19 08:00:00;;;;;;;;;10.75;9.00;;;;;;;;4687177;30;45588;-89
2021/07/19 08:02:25;;;;;;;;;9.50;9.50;;;;;;;;4691702;30;46066;-88
2021/07/19 08:04:50;;;;;;;;;11.75;7.25;;;;;;;;4696791;30;45490;-88
2021/07/19 08:07:15;;;;;;;;;8.00;8.00;;;;;;;;4697590;30;45310;-87
2021/07/19 08:09:41;;;;;;;;;9.67;8.33;;;;;;;;4692775;30;45423;-86
2021/07/19 08:12:07;;;;;;;;;10.25;9.00;;;;;;;;4690630;30;45718;-87
2021/07/19 08:14:33;;;;;;;;;8.00;8.00;;;;;;;;4691952;30;45392;-88
2021/07/19 08:16:58;;;;;;;;;11.00;8.50;;;;;;;;4692604;30;45148;-87
2021/07/19 08:27:11;;;;;;;;;9.00;9.00;;;;;;;;4936753;24;45979;-87
2021/07/19 08:29:37;;;;;;;;;9.75;7.75;;;;;;;;4779409;24;45591;-87
2021/07/19 08:32:02;;;;;;;;;12.50;11.75;;;;;;;;4658430;30;48041;-88
2021/07/19 08:34:27;;;;;;;;;16.75;16.00;;;;;;;;4672194;30;45604;-88
2021/07/19 08:39:28;;;;;;;;;10.00;9.00;;;;;;;;5653356;24;45815;-94
2021/07/19 08:41:53;;;;;;;;;15.25;14.75;;;;;;;;4696700;30;45528;-94
2021/07/19 08:44:18;;;;;;;;;13.75;12.50;;;;;;;;4696844;30;45505;-93
2021/07/19 08:46:44;;;;;;;;;8.00;8.00;;;;;;;;4698448;30;45970;-92
2021/07/19 08:49:09;;;;;;;;;9.50;8.00;;;;;;;;4699761;30;45499;-94
2021/07/19 08:51:39;;;;;;;;;8.50;8.00;;;;;;;;4681405;30;47383;-94
2021/07/19 08:54:04;;;;;;;;;9.75;6.25;;;;;;;;4677632;30;45747;-94
2021/07/19 08:56:30;;;;;;;;;9.25;8.00;;;;;;;;4694692;30;45447;-95
2021/07/19 08:58:56;;;;;;;;;9.25;6.25;;;;;;;;4698884;30;45628;-95
2021/07/19 09:01:22;;;;;;;;;7.25;6.00;;;;;;;;4696539;30;46350;-95
2021/07/19 09:03:53;;;;;;;;;9.00;8.25;;;;;;;;4721597;24;45895;-82
2021/07/19 09:06:40;;;;;;;;;7.00;6.25;;;;;;;;4678933;30;45532;-80
2021/07/19 09:09:33;;;;;;;;;6.00;5.25;;;;;;;;4703055;30;45373;-81
2021/07/19 09:12:00;;;;;;;;;6.00;5.00;;;;;;;;4670455;30;48325;-81
2021/07/19 09:14:25;;;;;;;;;11.00;6.50;;;;;;;;4675499;30;45756;-81
2021/07/19 09:16:51;;;;;;;;;10.75;6.00;;;;;;;;4664400;30;45574;-81
2021/07/19 09:19:27;;;;;;;;;13.00;8.75;;;;;;;;4681301;30;45619;-81
2021/07/19 09:21:59;;;;;;;;;8.75;4.75;;;;;;;;4687737;30;46465;-81
2021/07/19 09:24:29;;;;;;;;;7.25;7.00;;;;;;;;4685180;30;45623;-81
2021/07/19 09:26:55;;;;;;;;;4.75;4.75;;;;;;;;4687443;30;45593;-82
2021/07/19 09:29:22;;;;;;;;;7.00;5.50;;;;;;;;4690923;30;45577;-81
2021/07/19 09:31:52;;;;;;;;;10.75;7.75;;;;;;;;4684408;30;46671;-81
2021/07/19 09:34:19;;;;;;;;;5.25;5.00;;;;;;;;4673154;30;46060;-81
2021/07/19 09:36:54;;;;;;;;;5.75;5.50;;;;;;;;4663201;30;45566;-81
2021/07/19 09:39:19;;;;;;;;;4.75;4.75;;;;;;;;4685537;30;46178;-81
2021/07/19 09:41:44;;;;;;;;;8.50;6.25;;;;;;;;4673681;30;47174;-81
2021/07/19 09:44:10;;;;;;;;;8.75;6.75;;;;;;;;4692943;30;45563;-81
2021/07/19 09:46:35;;;;;;;;;7.25;6.50;;;;;;;;4669645;30;45655;-81
2021/07/19 09:49:01;;;;;;;;;4.00;4.00;;;;;;;;4675937;30;45622;-82
2021/07/19 09:51:30;;;;;;;;;6.75;6.00;;;;;;;;4686637;30;45556;-81
2021/07/19 09:54:09;;;;;;;;;8.00;6.00;;;;;;;;4685054;30;45469;-81
2021/07/19 09:56:35;;;;;;;;;8.50;6.75;;;;;;;;4687184;30;45542;-84
2021/07/19 09:59:21;;;;;;;;;8.50;6.25;;;;;;;;4684187;30;45608;-83
2021/07/19 10:10:58;;;;;;;;;7.50;6.50;;;;;;;;5168636;24;45466;-82
2021/07/19 10:16:20;;;;;;;;;8.75;8.00;;;;;;;;5059677;24;46461;-80
2021/07/19 10:18:47;;;;;;;;;10.25;7.25;;;;;;;;4695084;30;45577;-81
2021/07/19 10:21:12;;;;;;;;;8.75;7.75;;;;;;;;4670430;30;46238;-80
2021/07/19 10:23:39;;;;;;;;;8.50;5.50;;;;;;;;4686695;30;45695;-79
2021/07/19 10:26:04;;;;;;;;;9.25;7.25;;;;;;;;4682557;30;45930;-79
2021/07/19 10:28:29;;;;;;;;;9.75;8.00;;;;;;;;4684336;30;45551;-80
2021/07/19 10:30:56;;;;;;;;;10.00;8.75;;;;;;;;4685736;30;45600;-79
2021/07/19 10:33:22;;;;;;;;;7.50;6.50;;;;;;;;4684396;30;45538;-79
2021/07/19 10:35:49;;;;;;;;;8.25;7.00;;;;;;;;4664451;30;45754;-79
2021/07/19 10:38:17;;;;;;;;;9.50;6.50;;;;;;;;4671706;30;45872;-79
2021/07/19 10:40:43;;;;;;;;;7.00;7.00;;;;;;;;4666452;30;46401;-80
2021/07/19 10:43:09;;;;;;;;;7.25;6.50;;;;;;;;4670768;30;47670;-80
2021/07/19 10:45:50;;;;;;;;;9.25;8.00;;;;;;;;4685306;30;45804;-79
2021/07/19 10:48:32;;;;;;;;;9.00;7.00;;;;;;;;4692077;30;45897;-77
2021/07/19 10:50:59;;;;;;;;;12.50;7.75;;;;;;;;4649525;30;46185;-78
2021/07/19 10:53:28;;;;;;;;;10.00;8.50;;;;;;;;4676471;30;46713;-78
2021/07/19 10:55:57;;;;;;;;;9.00;9.00;;;;;;;;4680579;30;45572;-78
2021/07/19 10:58:28;;;;;;;;;7.25;7.25;;;;;;;;4686433;30;45739;-78
2021/07/19 11:00:54;;;;;;;;;9.25;7.00;;;;;;;;4673905;30;45641;-78
2021/07/19 11:03:19;;;;;;;;;9.75;8.00;;;;;;;;4667393;30;47267;-79
2021/07/19 11:05:45;;;;;;;;;8.25;7.50;;;;;;;;4685386;30;45637;-81
2021/07/19 11:25:26;;;;;;;;;7.00;7.00;;;;;;;;5679010;24;47076;31
2021/07/19 11:27:53;;;;;;;;;7.00;7.00;;;;;;;;4731675;24;46194;-94
2021/07/19 11:30:21;;;;;;;;;7.25;7.25;;;;;;;;4681247;30;44921;-92
2021/07/19 11:32:46;;;;;;;;;11.00;7.25;;;;;;;;4681822;30;45879;-92
2021/07/19 11:35:11;;;;;;;;;7.75;7.25;;;;;;;;4680332;30;45517;-94
2021/07/19 11:38:05;;;;;;;;;9.75;8.00;;;;;;;;4677738;30;45468;-94
2021/07/19 11:40:32;;;;;;;;;7.25;7.00;;;;;;;;4679917;30;45389;-93
2021/07/19 11:43:34;;;;;;;;;;;;;;;;;;;;;
2021/07/19 11:46:05;;;;;;;;;7.00;7.00;;;;;;;;4677932;30;76370;-94
2021/07/19 11:48:31;;;;;;;;;9.00;9.00;;;;;;;;4689302;30;45822;-92
2021/07/19 11:50:57;;;;;;;;;6.50;6.25;;;;;;;;4663786;30;45609;-93
2021/07/19 11:53:23;;;;;;;;;8.50;8.00;;;;;;;;4680797;30;46514;-93
2021/07/19 11:55:49;;;;;;;;;8.75;7.50;;;;;;;;4684885;30;46059;-93
2021/07/19 12:04:43;;;;;;;;;7.00;6.75;;;;;;;;4591284;30;45499;-78
2021/07/19 12:07:18;;;;;;;;;10.25;6.00;;;;;;;;4610326;30;48246;-80
2021/07/19 12:09:45;;;;;;;;;10.25;8.00;;;;;;;;4604860;30;45717;-79
2021/07/19 12:12:11;;;;;;;;;9.25;6.25;;;;;;;;4610049;30;45576;-77
2021/07/19 12:14:36;;;;;;;;;9.00;8.00;;;;;;;;4600869;30;45884;-78
2021/07/19 12:17:04;;;;;;;;;7.50;6.00;;;;;;;;4604186;30;47044;-78
2021/07/19 12:19:39;;;;;;;;;7.00;6.25;;;;;;;;4599313;30;45575;-79
2021/07/19 12:22:05;;;;;;;;;8.00;7.50;;;;;;;;4607627;30;45401;-77
2021/07/19 12:29:42;;;;;;;;;8.50;7.25;;;;;;;;4997596;24;45657;-77
2021/07/19 12:32:10;;;;;;;;;10.75;7.75;;;;;;;;4696100;30;45540;-79
2021/07/19 12:34:39;;;;;;;;;9.00;7.75;;;;;;;;4696743;30;46269;-80
2021/07/19 12:37:09;;;;;;;;;10.25;7.25;;;;;;;;4685496;30;48430;-79
2021/07/19 12:39:36;;;;;;;;;9.75;9.25;;;;;;;;4684453;30;45980;-78
2021/07/19 12:42:05;;;;;;;;;8.50;6.75;;;;;;;;4682150;30;45851;-80
2021/07/19 12:44:31;;;;;;;;;7.00;7.00;;;;;;;;4702257;30;45537;-79
2021/07/19 12:46:57;;;;;;;;;8.00;8.00;;;;;;;;4683069;30;47705;-79
2021/07/19 12:49:30;;;;;;;;;7.00;6.25;;;;;;;;4705696;30;48270;-79
2021/07/19 12:51:56;;;;;;;;;12.25;9.25;;;;;;;;4706263;30;45596;-79
2021/07/19 12:54:24;;;;;;;;;11.75;9.00;;;;;;;;4684799;30;45688;-80
2021/07/19 13:02:27;;;;;;;;;7.75;7.25;;;;;;;;5153296;24;46893;-80
2021/07/19 13:12:57;;;;;;;;;11.00;8.50;;;;;;;;4955737;24;46261;-80
2021/07/19 13:29:30;;;;;;;;;7.25;7.25;;;;;;;;5436256;24;46394;-78
2021/07/19 14:01:19;;;;;;;;;8.75;8.25;;;;;;;;5612352;24;45963;-78
2021/07/19 14:29:35;;;;;;;;;9.75;8.00;;;;;;;;4910650;24;46416;-77
2021/07/19 14:32:00;;;;;;;;;11.25;8.00;;;;;;;;4701200;30;45555;-77
2021/07/19 14:37:07;;;;;;;;;8.25;7.25;;;;;;;;5308969;24;45454;-81
2021/07/19 14:52:59;;;;;;;;;;;;;;;;;;;;;
2021/07/19 15:11:27;;;;;;;;;10.00;9.25;;;;;;;;4544803;31;45490;-81
2021/07/19 15:14:17;;;;;;;;;6.00;6.00;;;;;;;;4550175;31;45536;-78
2021/07/19 15:16:54;;;;;;;;;7.25;6.75;;;;;;;;4560200;31;45853;-79
2021/07/19 15:19:19;;;;;;;;;11.00;8.00;;;;;;;;4569443;31;45721;-79
2021/07/19 15:24:37;;;;;;;;;11.50;9.25;;;;;;;;4699986;30;45526;-88
2021/07/19 15:27:02;;;;;;;;;7.75;6.75;;;;;;;;4702849;30;45375;-87
2021/07/19 15:29:28;;;;;;;;;8.25;7.00;;;;;;;;4695303;30;48537;-87
2021/07/19 15:31:53;;;;;;;;;7.00;7.00;;;;;;;;4703432;30;45478;-88
2021/07/19 15:34:18;;;;;;;;;9.00;8.00;;;;;;;;4881290;25;45683;-88
2021/07/19 15:36:43;;;;;;;;;8.50;8.50;;;;;;;;4693750;30;45591;-86
2021/07/19 15:39:09;;;;;;;;;9.25;7.25;;;;;;;;4708267;30;45369;-88
2021/07/19 15:41:35;;;;;;;;;11.75;9.75;;;;;;;;5270886;24;45910;-78
2021/07/19 15:44:02;;;;;;;;;9.50;8.50;;;;;;;;4669680;30;45547;-78
2021/07/19 15:46:28;;;;;;;;;7.00;6.75;;;;;;;;4685017;30;45706;-78
2021/07/19 15:49:13;;;;;;;;;10.00;8.75;;;;;;;;4685787;30;45595;-79
2021/07/19 15:52:04;;;;;;;;;5.75;5.75;;;;;;;;4667271;30;45494;-77
2021/07/19 15:57:08;;;;;;;;;11.25;11.00;;;;;;;;5062039;24;45979;-80
2021/07/19 16:23:58;;;;;;;;;7.50;6.75;;;;;;;;5251154;24;45533;-77
2021/07/19 16:26:23;;;;;;;;;8.50;6.75;;;;;;;;4718645;24;46311;-87
2021/07/19 16:32:06;;;;;;;;;;;;;;;;;;;;;
2021/07/19 16:34:40;;;;;;;;;11.00;10.00;;;;;;;;4617660;30;73390;-78
2021/07/19 16:37:08;;;;;;;;;10.25;8.75;;;;;;;;4619013;30;45801;-78
2021/07/19 16:39:33;;;;;;;;;9.25;9.25;;;;;;;;4611973;30;45671;-80
2021/07/19 16:41:59;;;;;;;;;9.00;8.25;;;;;;;;4614962;30;47461;-79
2021/07/19 16:44:53;;;;;;;;;11.00;8.00;;;;;;;;4610295;30;45645;-80
2021/07/19 16:47:21;;;;;;;;;13.00;9.25;;;;;;;;4620130;30;45846;-79
2021/07/19 16:49:46;;;;;;;;;10.00;9.00;;;;;;;;4741891;24;45539;-86
2021/07/19 16:52:12;;;;;;;;;10.67;10.33;;;;;;;;4693923;30;45474;-86
2021/07/19 16:54:37;;;;;;;;;7.33;7.33;;;;;;;;4671621;30;46127;-87
2021/07/19 16:57:02;;;;;;;;;10.67;9.00;;;;;;;;4694164;30;45649;-87
2021/07/19 16:59:28;;;;;;;;;7.50;6.00;;;;;;;;4695979;30;45594;-87
2021/07/19 17:01:53;;;;;;;;;8.00;8.00;;;;;;;;4691801;30;45992;-86
2021/07/19 17:04:18;;;;;;;;;10.00;8.00;;;;;;;;4689241;30;45473;-87
2021/07/19 17:06:43;;;;;;;;;9.00;7.33;;;;;;;;4692392;30;45457;-87
2021/07/19 17:09:09;;;;;;;;;8.67;8.00;;;;;;;;4677485;30;45535;-86
2021/07/19 17:11:34;;;;;;;;;8.00;7.33;;;;;;;;4697290;30;45793;-87
2021/07/19 17:13:59;;;;;;;;;8.00;8.00;;;;;;;;4690354;30;46028;-86
2021/07/19 17:16:25;;;;;;;;;8.00;7.00;;;;;;;;4690964;30;45489;-87
2021/07/19 17:18:50;;;;;;;;;9.00;8.25;;;;;;;;4708253;24;45492;-79
2021/07/19 17:21:15;;;;;;;;;14.00;10.50;;;;;;;;4681788;30;48197;-79
2021/07/19 17:23:41;;;;;;;;;8.00;8.00;;;;;;;;4686240;30;45962;-79
2021/07/19 17:26:06;;;;;;;;;10.25;9.50;;;;;;;;4689689;30;45577;-78
2021/07/19 17:28:32;;;;;;;;;9.25;8.00;;;;;;;;4687143;30;45784;-80
2021/07/19 17:30:57;;;;;;;;;10.00;8.00;;;;;;;;4707141;30;45685;-78
2021/07/19 17:33:22;;;;;;;;;5.50;5.50;;;;;;;;4699225;30;45634;-79
2021/07/19 17:35:49;;;;;;;;;10.75;10.25;;;;;;;;4704694;30;45668;-79
2021/07/19 17:38:15;;;;;;;;;11.25;10.50;;;;;;;;4706402;30;45668;-78
2021/07/19 17:40:41;;;;;;;;;10.75;9.00;;;;;;;;4697857;30;47294;-78
2021/07/19 17:43:08;;;;;;;;;12.25;11.25;;;;;;;;4706936;30;45602;-76
2021/07/19 17:45:34;;;;;;;;;11.00;9.50;;;;;;;;4694938;30;45705;-76
2021/07/19 17:48:00;;;;;;;;;8.00;8.00;;;;;;;;4703338;30;45542;-77
2021/07/19 17:50:26;;;;;;;;;10.75;9.00;;;;;;;;4704210;30;47048;-77
2021/07/19 17:52:52;;;;;;;;;9.25;9.00;;;;;;;;4700784;30;45438;-77
2021/07/19 17:55:18;;;;;;;;;15.00;9.50;;;;;;;;4695809;30;46555;-77
2021/07/19 17:57:44;;;;;;;;;9.50;9.00;;;;;;;;4699199;30;45612;-77
2021/07/19 18:00:09;;;;;;;;;11.25;9.25;;;;;;;;4701052;30;47798;-77
2021/07/19 18:02:34;;;;;;;;;9.75;9.00;;;;;;;;4704351;30;45348;-79
2021/07/19 18:05:00;;;;;;;;;7.00;7.00;;;;;;;;4699690;30;45621;-77
2021/07/19 18:07:25;;;;;;;;;9.50;9.00;;;;;;;;4707177;30;45580;-77
2021/07/19 18:09:50;;;;;;;;;10.00;9.25;;;;;;;;4688450;30;48587;-77
2021/07/19 18:12:16;;;;;;;;;9.75;8.00;;;;;;;;4701483;30;45813;-77
2021/07/19 18:14:41;;;;;;;;;12.50;10.00;;;;;;;;4706913;30;46369;-77
2021/07/19 18:17:07;;;;;;;;;9.25;7.75;;;;;;;;4699173;30;45330;-77
2021/07/19 18:19:32;;;;;;;;;13.50;9.75;;;;;;;;4683651;30;45546;-78
2021/07/19 18:32:03;;;;;;;;;8.00;8.00;;;;;;;;4699068;30;46575;-77
2021/07/19 18:34:28;;;;;;;;;9.50;7.75;;;;;;;;4691108;30;46252;-77
2021/07/19 18:36:53;;;;;;;;;11.50;9.75;;;;;;;;4700093;30;45568;-77
2021/07/19 18:39:19;;;;;;;;;13.75;11.75;;;;;;;;4698473;30;46055;-76
2021/07/19 18:41:44;;;;;;;;;10.50;8.50;;;;;;;;4707074;30;50876;-79
2021/07/19 18:44:09;;;;;;;;;10.25;8.00;;;;;;;;4702590;30;45612;-79
2021/07/19 18:46:34;;;;;;;;;12.00;10.75;;;;;;;;4702263;30;45500;-79
2021/07/19 18:49:00;;;;;;;;;11.00;9.00;;;;;;;;4706250;30;45643;-78
2021/07/19 18:51:25;;;;;;;;;10.50;8.25;;;;;;;;4701940;30;45607;-79
2021/07/19 18:53:53;;;;;;;;;8.00;8.00;;;;;;;;4692861;30;45587;-79
2021/07/19 18:56:18;;;;;;;;;12.50;10.50;;;;;;;;4702229;30;45659;-79
2021/07/19 18:58:43;;;;;;;;;11.00;9.00;;;;;;;;4700051;30;45920;-79
2021/07/19 19:01:09;;;;;;;;;7.50;7.50;;;;;;;;4686231;30;45742;-79
2021/07/19 19:03:37;;;;;;;;;10.33;9.00;;;;;;;;4698405;30;45489;-79
2021/07/19 19:06:02;;;;;;;;;9.00;8.25;;;;;;;;4701848;30;46545;-79
2021/07/19 19:08:28;;;;;;;;;11.00;9.75;;;;;;;;4703509;30;45832;-78
2021/07/19 19:10:59;;;;;;;;;11.00;10.00;;;;;;;;4700320;30;45528;-79
2021/07/19 19:13:24;;;;;;;;;12.00;10.00;;;;;;;;4707884;30;45465;-79
2021/07/19 19:15:50;;;;;;;;;8.00;8.00;;;;;;;;4698283;30;46231;-79
2021/07/19 19:18:15;;;;;;;;;10.00;7.75;;;;;;;;4685729;30;47200;-80
2021/07/19 19:20:40;;;;;;;;;11.00;9.25;;;;;;;;4704508;30;45869;-79
2021/07/19 19:23:09;;;;;;;;;10.50;10.25;;;;;;;;4701319;30;45582;-78
2021/07/19 19:25:37;;;;;;;;;8.00;8.00;;;;;;;;4702508;30;45594;-79
2021/07/19 19:28:02;;;;;;;;;12.75;10.25;;;;;;;;4707085;30;46437;-79
2021/07/19 19:30:30;;;;;;;;;8.50;8.50;;;;;;;;4689523;30;46660;-78
2021/07/19 19:32:55;;;;;;;;;11.00;8.50;;;;;;;;4697872;30;45507;-79
2021/07/19 19:35:43;;;;;;;;;10.00;8.25;;;;;;;;4688820;29;45800;-79
2021/07/19 19:38:12;;;;;;;;;11.25;10.75;;;;;;;;4695971;30;46984;-78
2021/07/19 19:40:37;;;;;;;;;9.00;9.00;;;;;;;;4698494;30;46068;-79
2021/07/19 19:43:05;;;;;;;;;8.75;8.75;;;;;;;;4702662;30;45649;-77
2021/07/19 19:45:33;;;;;;;;;11.00;10.50;;;;;;;;4694269;30;45617;-77
2021/07/19 19:47:58;;;;;;;;;10.50;10.50;;;;;;;;4702034;30;46056;-77
2021/07/19 19:50:28;;;;;;;;;9.25;8.50;;;;;;;;4699839;30;45803;-77
2021/07/19 19:52:54;;;;;;;;;10.50;9.00;;;;;;;;4701473;30;45624;-77
2021/07/19 19:55:20;;;;;;;;;14.00;9.00;;;;;;;;4698911;30;45581;-77
2021/07/19 19:57:45;;;;;;;;;9.00;9.00;;;;;;;;4701740;30;46280;-77
2021/07/19 20:02:45;;;;;;;;;11.00;9.50;;;;;;;;5492985;24;47359;-78
2021/07/19 20:05:12;;;;;;;;;10.00;8.25;;;;;;;;4680253;30;46222;-78
2021/07/19 20:07:40;;;;;;;;;11.00;9.25;;;;;;;;4686487;30;45425;-79
2021/07/19 20:10:06;;;;;;;;;12.25;11.00;;;;;;;;4695589;30;45377;-78
2021/07/19 20:24:50;;;;;;;;;11.50;11.25;;;;;;;;4589744;30;45746;-80
2021/07/19 20:29:51;;;;;;;;;11.75;9.75;;;;;;;;5550624;24;45881;-87
2021/07/19 20:32:16;;;;;;;;;16.67;12.33;;;;;;;;4674347;30;46191;-87
2021/07/19 20:34:41;;;;;;;;;14.25;12.25;;;;;;;;4692380;30;45651;-87
2021/07/19 20:44:51;;;;;;;;;13.50;11.75;;;;;;;;4680452;30;45657;-81
2021/07/19 20:47:17;;;;;;;;;14.25;14.00;;;;;;;;4665123;30;45752;-79
2021/07/19 20:49:42;;;;;;;;;13.25;13.25;;;;;;;;4686621;30;46094;-80
2021/07/19 20:52:08;;;;;;;;;14.75;10.00;;;;;;;;4670631;30;45729;-80